Time;durP1;ratioP1;P1;durP2;ratioP2;P2;SDS_P1;SDS_P2;PMS_P1;PMS_P2;Temp;Humidity;BMP_temperature;BMP_pressure;BME280_temperature;BME280_humidity;BME280_pressure;Samples;Min_cycle;Max_cycle;Signal;HPM_P1;HPM_P2
2022/11/14 00:04:49;;;;;;;2.33;2.10;;;;;;;17.00;95.40;101515.31;20778212;28;20498;-92
2022/11/14 00:15:09;;;;;;;3.03;2.00;;;;;;;17.00;95.28;101499.16;20796670;28;20136;-92
2022/11/14 00:25:30;;;;;;;2.40;2.00;;;;;;;16.98;95.39;101501.94;20780896;28;20470;-92
2022/11/14 00:35:54;;;;;;;2.00;1.80;;;;;;;16.97;95.29;101502.91;20780761;28;20136;-93
2022/11/14 00:46:14;;;;;;;2.58;1.80;;;;;;;16.95;95.19;101491.41;20779655;28;20128;-92
2022/11/14 00:56:34;;;;;;;2.30;1.92;;;;;;;16.95;95.22;101465.38;20785335;28;20076;-92
2022/11/14 01:06:55;;;;;;;2.97;1.92;;;;;;;16.55;95.25;101398.47;20793234;28;20084;-92
2022/11/14 01:17:15;;;;;;;3.13;2.13;;;;;;;16.61;95.03;101375.66;20778788;28;20041;-90
2022/11/14 01:27:35;;;;;;;2.58;1.95;;;;;;;16.44;95.19;101350.06;20778082;28;20135;-93
2022/11/14 01:37:55;;;;;;;2.42;2.00;;;;;;;16.92;95.14;101419.88;20792125;28;20038;-91
2022/11/14 01:48:21;;;;;;;3.22;2.40;;;;;;;16.86;95.02;101396.16;20776692;28;20468;-91
2022/11/14 01:58:46;;;;;;;2.50;1.98;;;;;;;16.84;94.98;101363.16;20777038;28;20053;-90
2022/11/14 02:09:06;;;;;;;2.53;2.23;;;;;;;16.90;95.10;101365.34;20792115;28;20140;-91
2022/11/14 02:19:49;;;;;;;2.78;2.35;;;;;;;16.52;95.14;101297.41;20791267;28;20064;-92
2022/11/14 02:30:13;;;;;;;3.00;2.10;;;;;;;16.90;94.96;101334.91;20804762;28;20053;-92
2022/11/14 02:40:33;;;;;;;2.53;2.10;;;;;;;16.90;94.96;101326.84;20805342;28;20041;-91
2022/11/14 02:50:53;;;;;;;2.95;2.53;;;;;;;16.89;94.80;101315.25;20788270;28;20116;-91
2022/11/14 03:01:13;;;;;;;3.03;2.50;;;;;;;16.89;95.04;101314.38;20793929;28;20505;-91
2022/11/14 03:11:40;;;;;;;3.42;2.45;;;;;;;16.89;94.97;101309.00;20801631;28;20394;-92
2022/11/14 03:22:00;;;;;;;3.50;2.33;;;;;;;16.49;95.03;101240.38;20802178;28;20045;-91
2022/11/14 03:32:21;;;;;;;2.60;2.40;;;;;;;16.88;94.96;101313.53;20799985;28;20052;-91
2022/11/14 03:42:41;;;;;;;3.28;2.67;;;;;;;16.87;94.91;101284.91;20798659;28;20045;-93
2022/11/14 03:53:01;;;;;;;2.65;2.30;;;;;;;16.87;94.72;101278.66;20776256;28;20049;-93
2022/11/14 04:03:22;;;;;;;3.15;2.33;;;;;;;16.87;94.83;101260.72;20798148;28;20045;-92
2022/11/14 04:13:42;;;;;;;3.75;2.80;;;;;;;16.46;94.83;101201.13;20782191;28;20132;-93
2022/11/14 04:24:02;;;;;;;2.40;2.17;;;;;;;16.85;94.86;101246.53;20795874;28;20053;-92
2022/11/14 04:34:30;;;;;;;4.43;2.63;;;;;;;16.86;94.86;101242.00;20795718;28;20406;-91
2022/11/14 04:44:50;;;;;;;3.65;3.03;;;;;;;16.45;94.73;101155.59;20779685;28;20045;-92
2022/11/14 04:55:10;;;;;;;3.17;2.63;;;;;;;16.75;94.82;101200.69;20786193;28;20045;-91
2022/11/14 05:05:30;;;;;;;3.17;2.78;;;;;;;16.85;94.93;101221.47;20778572;28;20410;-93
2022/11/14 05:15:50;;;;;;;2.78;2.53;;;;;;;16.85;94.74;101216.09;20793487;28;20041;-92
2022/11/14 05:26:13;;;;;;;3.20;2.75;;;;;;;16.85;94.58;101216.97;20793263;28;20502;-92
2022/11/14 05:36:33;;;;;;;2.67;2.47;;;;;;;16.86;94.75;101190.91;20808835;28;20073;-92
2022/11/14 05:46:53;;;;;;;3.85;3.45;;;;;;;16.84;94.76;101180.28;20837610;28;20061;-91
2022/11/14 05:57:12;;;;;;;3.08;2.78;;;;;;;16.85;94.60;101178.44;20770151;28;20046;-92
2022/11/14 06:07:33;;;;;;;3.13;2.83;;;;;;;16.83;94.57;101181.28;20801863;28;20049;-92
2022/11/14 06:17:53;;;;;;;3.25;2.95;;;;;;;16.72;94.57;101167.81;20793434;28;20077;-92
2022/11/14 06:28:13;;;;;;;8.07;6.43;;;;;;;16.15;94.25;101074.59;20751693;28;20042;-89
2022/11/14 06:38:35;;;;;;;7.93;6.70;;;;;;;16.90;92.31;101177.09;20783670;28;20045;-87
2022/11/14 06:49:02;;;;;;;10.60;7.03;;;;;;;16.99;95.97;101185.44;20763838;28;20053;-89
2022/11/14 06:59:22;;;;;;;8.10;7.03;;;;;;;16.62;100.00;101120.16;20729676;28;20045;-93
2022/11/14 07:09:42;;;;;;;10.75;7.60;;;;;;;17.13;99.36;101195.94;20791952;28;20041;-90
2022/11/14 07:20:02;;;;;;;8.50;7.30;;;;;;;16.71;97.85;101123.09;20764939;28;20058;-90
2022/11/14 07:30:23;;;;;;;15.40;9.90;;;;;;;17.14;100.00;101183.34;20749582;28;20470;-90
2022/11/14 07:40:54;;;;;;;13.77;8.43;;;;;;;16.58;99.73;101096.34;20777460;28;20045;-89
2022/11/14 07:51:19;;;;;;;12.77;9.50;;;;;;;17.10;98.26;101188.13;20780777;28;20489;-88
2022/11/14 08:01:39;;;;;;;15.73;10.80;;;;;;;16.92;97.17;101148.25;20749851;28;20164;-88
2022/11/14 08:11:59;;;;;;;14.73;10.95;;;;;;;17.02;96.23;101159.16;20777181;28;20129;-88
2022/11/14 08:22:19;;;;;;;14.48;10.55;;;;;;;17.02;95.37;101163.69;20762342;28;20057;-86
2022/11/14 08:32:39;;;;;;;13.55;10.18;;;;;;;17.07;97.44;101154.28;20765713;28;20073;-88
2022/11/14 08:43:00;;;;;;;15.25;10.68;;;;;;;17.15;98.28;101155.47;20716141;28;20042;-88
2022/11/14 08:53:21;;;;;;;12.13;9.57;;;;;;;17.19;98.24;101138.09;20778716;28;20049;-88
2022/11/14 09:03:41;;;;;;;13.05;10.45;;;;;;;17.23;97.79;101126.97;20764403;28;20453;-90
2022/11/14 09:14:11;;;;;;;11.93;10.25;;;;;;;17.19;96.96;101133.56;20773454;28;20045;-88
2022/11/14 09:36:37;;;;;;;12.52;9.98;;;;;;;17.30;95.55;101137.22;20789169;28;20057;-88
2022/11/14 09:47:08;;;;;;;12.77;10.32;;;;;;;17.30;94.93;101135.38;20783649;28;20414;-88
2022/11/14 09:57:28;;;;;;;11.93;9.65;;;;;;;17.33;94.23;101136.97;20790643;28;20049;-88
2022/11/14 10:07:54;;;;;;;11.57;9.75;;;;;;;17.34;93.67;101122.53;20762846;28;20045;-88
2022/11/14 14:52:40;;;;;;;8.07;6.68;;;;;;;16.73;82.64;100766.25;20793899;28;20054;-91
2022/11/14 15:03:00;;;;;;;7.75;6.95;;;;;;;17.17;82.42;100838.75;20803217;28;20137;-95
2022/11/14 15:13:22;;;;;;;8.52;7.38;;;;;;;17.13;82.23;100830.09;20876052;28;20049;-96
2022/11/14 15:23:43;;;;;;;8.25;6.85;;;;;;;17.10;81.55;100828.53;20816662;28;20495;-93
2022/11/14 15:34:29;;;;;;;7.07;6.38;;;;;;;16.93;81.31;100821.00;20809575;28;20053;-93
2022/11/14 15:44:49;;;;;;;6.00;5.38;;;;;;;17.10;80.23;100835.72;20772051;28;20045;-88
2022/11/14 15:55:20;;;;;;;6.95;5.88;;;;;;;16.88;81.07;100797.22;20783713;28;20053;-87
2022/11/14 16:05:41;;;;;;;7.22;5.72;;;;;;;16.66;79.41;100747.16;20763245;28;20053;-89
2022/11/14 16:16:01;;;;;;;6.72;5.65;;;;;;;17.08;80.24;100813.50;20766026;28;20042;-89
2022/11/14 16:26:21;;;;;;;6.53;5.70;;;;;;;17.06;80.63;100800.19;20756722;28;20049;-92
2022/11/14 16:36:41;;;;;;;7.28;5.65;;;;;;;17.05;80.72;100794.94;20770921;28;20049;-87
2022/11/14 16:47:01;;;;;;;8.50;6.22;;;;;;;17.04;82.22;100804.00;20757973;28;20501;-92
2022/11/14 16:57:21;;;;;;;10.68;6.50;;;;;;;17.02;81.88;100785.31;20770784;28;20444;-90
2022/11/14 17:07:41;;;;;;;7.30;5.80;;;;;;;16.99;82.33;100766.72;20761567;28;20514;-88
2022/11/14 17:18:02;;;;;;;8.35;5.78;;;;;;;16.97;83.56;100747.16;20764251;28;20486;-90
2022/11/14 17:28:22;;;;;;;8.48;5.97;;;;;;;16.95;84.57;100739.25;20720874;28;20049;-88
2022/11/14 17:38:43;;;;;;;7.45;5.63;;;;;;;16.95;85.18;100735.69;20744341;28;20049;-89
2022/11/14 17:49:03;;;;;;;7.25;6.13;;;;;;;16.93;85.51;100727.75;20758869;28;20053;-89
2022/11/14 17:59:23;;;;;;;7.30;5.50;;;;;;;16.46;85.99;100655.63;20742903;28;20498;-89
2022/11/14 18:09:43;;;;;;;6.57;5.47;;;;;;;16.92;86.69;100735.94;20752561;28;20054;-91
2022/11/14 18:20:04;;;;;;;7.50;5.85;;;;;;;16.90;86.87;100736.09;20760416;28;20045;-87
2022/11/14 18:30:25;;;;;;;7.03;5.78;;;;;;;16.76;87.64;100699.66;20744758;28;20136;-87
2022/11/14 18:41:04;;;;;;;7.25;5.82;;;;;;;16.89;87.62;100707.50;20765908;28;20053;-87
2022/11/14 18:51:27;;;;;;;7.40;5.88;;;;;;;16.68;87.23;100684.19;20777590;28;20061;-89
2022/11/14 19:01:48;;;;;;;7.50;6.03;;;;;;;16.89;87.94;100706.66;20750215;28;20513;-84
2022/11/14 19:12:17;;;;;;;7.85;6.38;;;;;;;16.87;86.34;100685.28;20750002;28;20050;-88
2022/11/14 19:22:37;;;;;;;9.02;6.40;;;;;;;16.87;85.86;100677.22;20773773;28;20053;-88
2022/11/14 19:32:57;;;;;;;7.18;6.35;;;;;;;16.86;85.71;100680.91;20771272;28;20038;-87
2022/11/14 19:43:17;;;;;;;8.88;7.60;;;;;;;16.85;85.76;100687.25;20763967;28;20160;-87
2022/11/14 19:53:39;;;;;;;7.80;6.40;;;;;;;16.70;85.64;100654.50;20726110;28;20502;-88
2022/11/14 20:04:00;;;;;;;8.57;6.75;;;;;;;16.84;85.54;100673.94;20762309;28;20041;-87
2022/11/14 20:14:20;;;;;;;8.18;6.50;;;;;;;16.84;85.58;100672.13;20782631;28;20160;-88
2022/11/14 20:24:40;;;;;;;7.72;6.45;;;;;;;16.83;85.50;100670.41;20764731;28;20143;-88
2022/11/14 20:35:00;;;;;;;7.32;6.47;;;;;;;16.82;85.42;100663.34;20768005;28;20107;-88
2022/11/14 20:45:20;;;;;;;6.70;5.93;;;;;;;16.82;85.21;100647.19;20775586;28;20045;-87
2022/11/14 20:55:40;;;;;;;7.00;6.30;;;;;;;16.81;84.85;100646.34;20755392;28;20546;-87
2022/11/14 21:06:01;;;;;;;8.45;7.10;;;;;;;16.81;85.08;100649.03;20756041;28;20071;-88
2022/11/14 21:16:29;;;;;;;8.10;6.90;;;;;;;16.81;84.93;100649.03;20786735;28;20041;-88
2022/11/14 21:26:49;;;;;;;6.93;6.07;;;;;;;16.81;84.74;100640.13;20779967;28;20508;-88
2022/11/14 21:37:10;;;;;;;7.82;6.38;;;;;;;16.80;84.46;100635.72;20777130;28;20041;-88
2022/11/14 21:47:30;;;;;;;7.25;6.43;;;;;;;16.80;84.21;100633.03;20780012;28;20073;-88
2022/11/14 21:57:53;;;;;;;6.90;6.13;;;;;;;16.80;84.18;100624.97;20752463;28;20058;-87
2022/11/14 22:08:14;;;;;;;6.80;5.82;;;;;;;16.73;84.02;100623.78;20778720;28;20456;-88
2022/11/14 22:18:34;;;;;;;7.40;6.35;;;;;;;16.79;83.91;100620.56;20782443;28;20409;-88
2022/11/14 22:28:55;;;;;;;6.35;5.55;;;;;;;16.69;83.71;100601.72;20792581;28;20049;-87
2022/11/14 22:39:15;;;;;;;6.97;5.75;;;;;;;16.79;83.61;100604.44;20797133;28;20058;-88
2022/11/14 22:49:35;;;;;;;6.93;6.22;;;;;;;16.79;83.41;100599.06;20796673;28;20498;-87
2022/11/14 22:59:55;;;;;;;6.25;5.55;;;;;;;16.45;83.11;100543.78;20792764;28;20076;-88
2022/11/14 23:10:15;;;;;;;6.95;5.88;;;;;;;16.79;83.20;100591.00;20792360;28;20045;-87
2022/11/14 23:20:35;;;;;;;6.30;5.68;;;;;;;16.79;82.91;100582.94;20770421;28;20497;-87
2022/11/14 23:30:59;;;;;;;6.32;5.40;;;;;;;16.47;82.70;100530.22;20792043;28;20057;-88
2022/11/14 23:41:21;;;;;;;6.15;5.35;;;;;;;16.28;82.38;100499.59;20790496;28;20080;-88
2022/11/14 23:51:41;;;;;;;6.97;5.50;;;;;;;16.76;82.43;100578.69;20776734;28;20050;-87
